Time;durP1;ratioP1;P1;durP2;ratioP2;P2;SDS_P1;SDS_P2;PMS_P1;PMS_P2;Temp;Humidity;BMP_temperature;BMP_pressure;BME280_temperature;BME280_humidity;BME280_pressure;Samples;Min_cycle;Max_cycle;Signal;HPM_P1;HPM_P2
2023/05/09 00:02:27;;;;;;;9.90;8.20;;;9.30;99.90;;;-141.84;67.94;19771.16;5054009;28;20206;-55
2023/05/09 00:04:56;;;;;;;9.73;8.10;;;9.20;99.90;;;-141.84;68.26;19761.00;5054078;28;20209;-57
2023/05/09 00:07:24;;;;;;;8.90;8.00;;;9.10;99.90;;;-141.84;67.84;19777.25;5054022;28;20193;-60
2023/05/09 00:09:52;;;;;;;8.77;7.87;;;9.10;99.90;;;-141.84;67.59;19783.34;5053894;28;20201;-55
2023/05/09 00:12:22;;;;;;;9.10;8.20;;;9.10;99.90;;;-141.84;68.15;19763.03;5053719;28;20208;-55
2023/05/09 00:14:53;;;;;;;8.90;8.00;;;9.10;99.90;;;-141.84;68.10;19738.66;5053856;28;20208;-55
2023/05/09 00:17:21;;;;;;;9.30;8.40;;;9.10;99.90;;;-141.84;68.38;19740.69;5053723;28;20570;-56
2023/05/09 00:19:50;;;;;;;8.60;7.80;;;9.00;99.90;;;-141.84;68.53;19797.59;5053602;28;20204;-56
2023/05/09 00:22:20;;;;;;;11.17;8.00;;;9.00;99.90;;;-141.84;68.57;19752.88;5053526;28;20201;-55
2023/05/09 00:24:48;;;;;;;8.13;7.43;;;9.00;99.90;;;-141.84;68.94;19736.59;5053499;28;20212;-55
2023/05/09 00:27:16;;;;;;;8.50;7.63;;;8.90;99.90;;;-141.84;68.74;19765.06;5053884;28;20197;-56
2023/05/09 00:29:46;;;;;;;8.10;7.30;;;8.90;99.90;;;-141.84;68.96;19728.47;5053499;28;20206;-54
2023/05/09 00:32:14;;;;;;;11.00;8.23;;;8.90;99.90;;;-141.84;69.09;19730.50;5052770;28;20201;-55
2023/05/09 00:34:42;;;;;;;8.50;7.70;;;8.80;99.90;;;-141.84;69.47;19730.50;5053462;28;20278;-54
2023/05/09 00:37:10;;;;;;;8.00;7.20;;;8.80;99.90;;;-141.84;68.11;19736.59;5053572;28;20225;-56
2023/05/09 00:39:38;;;;;;;8.23;7.33;;;8.80;99.90;;;-141.84;67.51;19752.88;5053507;28;20570;-57
2023/05/09 00:42:07;;;;;;;9.93;7.80;;;8.90;99.90;;;-141.84;68.14;19726.44;5053457;28;20201;-56
2023/05/09 00:44:35;;;;;;;8.83;7.93;;;8.80;99.90;;;-141.84;68.26;19736.59;5053427;28;20228;-56
2023/05/09 00:47:05;;;;;;;8.43;7.50;;;8.80;99.90;;;-141.84;67.99;19716.28;5053145;28;20200;-57
2023/05/09 00:49:33;;;;;;;8.63;7.37;;;8.80;99.90;;;-141.84;68.42;19724.41;5052748;28;20352;-56
2023/05/09 00:52:03;;;;;;;8.53;7.63;;;8.80;99.90;;;-141.84;68.14;19702.06;5053032;28;20190;-55
2023/05/09 00:54:32;;;;;;;11.80;7.63;;;8.80;99.90;;;-141.84;68.23;19734.56;5053027;28;20562;-55
2023/05/09 00:57:00;;;;;;;8.60;7.77;;;8.70;99.90;;;-141.84;68.74;19700.03;5052877;28;20217;-54
2023/05/09 00:59:28;;;;;;;10.83;7.60;;;8.70;99.90;;;-141.84;69.05;19663.44;5053156;28;20208;-56
2023/05/09 01:01:56;;;;;;;8.37;7.53;;;8.60;99.90;;;-141.84;68.54;19718.31;5053008;28;20224;-55
2023/05/09 01:04:26;;;;;;;8.23;7.53;;;8.60;99.90;;;-141.84;68.10;19732.53;5052340;28;20214;-53
2023/05/09 01:07:06;;;;;;;9.43;7.50;;;8.60;99.90;;;-141.84;67.58;19720.34;5052954;28;20193;-55
2023/05/09 01:09:46;;;;;;;9.43;7.80;;;8.70;99.90;;;-141.84;68.22;19663.44;5053005;28;20551;-55
2023/05/09 01:12:26;;;;;;;7.90;7.20;;;8.60;99.90;;;-141.84;68.66;19663.44;5053148;28;20187;-55
2023/05/09 01:15:05;;;;;;;7.37;6.67;;;8.50;99.90;;;-141.84;68.52;19716.28;5052986;28;20189;-55
2023/05/09 01:17:47;;;;;;;10.10;7.30;;;8.50;99.90;;;-141.84;68.17;19702.06;5052608;28;20684;-55
2023/05/09 01:20:30;;;;;;;7.80;7.07;;;8.50;99.90;;;-141.84;68.20;19720.34;5052173;28;20243;-55
2023/05/09 01:23:38;;;;;;;8.73;7.83;;;8.50;99.90;;;-141.84;67.20;19679.72;5052176;28;20774;-56
2023/05/09 01:26:19;;;;;;;8.10;7.40;;;8.50;99.90;;;-141.84;67.31;19695.97;5052494;28;20529;-55
2023/05/09 01:29:31;;;;;;;8.60;7.77;;;8.50;99.90;;;-141.84;67.51;19714.25;5052538;28;20224;-53
2023/05/09 01:32:03;;;;;;;8.73;7.77;;;8.50;99.90;;;-141.84;67.93;19679.72;5052699;28;20212;-56
2023/05/09 01:34:34;;;;;;;10.13;8.23;;;8.40;99.90;;;-141.84;68.07;19683.78;5052719;28;20224;-54
2023/05/09 01:37:06;;;;;;;8.63;7.73;;;8.30;99.90;;;-141.84;68.08;19687.84;5052186;28;20580;-54
2023/05/09 01:39:40;;;;;;;8.13;7.33;;;8.40;99.90;;;-141.84;67.68;19675.63;5052577;28;20194;-53
2023/05/09 01:42:11;;;;;;;8.97;7.67;;;8.30;99.90;;;-141.84;68.79;19637.03;5051537;28;20656;-56
2023/05/09 01:44:45;;;;;;;8.43;7.63;;;8.20;99.90;;;-141.84;68.30;19683.78;5051379;28;20565;-56
2023/05/09 01:47:16;;;;;;;9.27;7.67;;;8.20;99.90;;;-141.84;68.52;19632.97;5040324;28;20201;-54
2023/05/09 01:49:47;;;;;;;9.70;7.90;;;8.20;99.90;;;-141.84;68.59;19614.66;5044395;28;20432;-56
2023/05/09 01:52:18;;;;;;;8.73;7.90;;;8.10;99.90;;;-141.84;68.08;19675.63;5050632;28;20201;-57
2023/05/09 01:54:49;;;;;;;8.57;7.73;;;8.10;99.90;;;-141.84;68.22;19637.03;5051640;28;20208;-57
2023/05/09 01:57:21;;;;;;;9.30;7.80;;;8.00;99.90;;;-141.84;67.39;19700.03;5051567;28;20209;-55
2023/05/09 01:59:52;;;;;;;8.50;7.70;;;8.10;99.90;;;-141.84;66.57;19675.63;5051425;28;20194;-55
2023/05/09 02:02:21;;;;;;;9.63;7.60;;;8.20;99.90;;;-141.84;66.93;19651.25;5051112;28;20677;-56
2023/05/09 02:04:50;;;;;;;8.37;7.10;;;8.20;99.90;;;-141.84;67.04;19657.34;5051353;28;20212;-54
2023/05/09 02:07:20;;;;;;;8.87;7.60;;;8.10;99.90;;;-141.84;67.26;19659.38;5051560;28;20201;-55
2023/05/09 02:09:52;;;;;;;11.83;7.40;;;8.00;99.90;;;-141.84;66.21;19661.41;5051326;28;20201;-57
2023/05/09 02:12:21;;;;;;;8.90;7.70;;;8.10;99.90;;;-141.84;66.07;19675.63;5051255;28;20217;-55
2023/05/09 02:14:49;;;;;;;7.87;7.07;;;8.10;99.90;;;-141.84;65.81;19663.44;5050920;28;20554;-54
2023/05/09 02:17:20;;;;;;;7.53;6.73;;;8.20;99.90;;;-141.84;65.75;19669.53;5051236;28;20232;-56
2023/05/09 02:19:48;;;;;;;8.70;7.33;;;8.20;99.90;;;-141.84;66.32;19687.84;5051377;28;20192;-56
2023/05/09 02:22:17;;;;;;;8.77;7.43;;;8.10;99.90;;;-141.84;66.23;19659.38;5043975;28;20205;-54
2023/05/09 02:24:45;;;;;;;7.63;6.60;;;8.10;99.90;;;-141.84;66.09;19655.31;5050875;28;20673;-52
2023/05/09 02:27:15;;;;;;;7.53;6.77;;;8.10;99.90;;;-141.84;66.25;19661.41;5051333;28;20198;-57
2023/05/09 02:29:48;;;;;;;8.07;7.00;;;8.00;99.90;;;-141.84;66.24;19626.88;5051057;28;20604;-51
2023/05/09 02:32:22;;;;;;;7.77;6.67;;;8.00;99.90;;;-141.84;66.10;19647.19;5054432;28;20438;-54
2023/05/09 02:34:52;;;;;;;9.50;7.27;;;8.00;99.90;;;-141.84;66.44;19639.06;5054944;28;20205;-53
2023/05/09 02:37:22;;;;;;;8.73;7.00;;;7.90;99.90;;;-141.84;66.26;19612.63;5054984;28;20275;-53
2023/05/09 02:39:50;;;;;;;7.33;6.57;;;7.90;99.90;;;-141.84;66.50;19628.91;5054940;28;20204;-54
2023/05/09 02:42:24;;;;;;;7.83;7.13;;;7.80;99.90;;;-141.84;66.27;19612.63;5055108;28;20198;-56
2023/05/09 02:44:52;;;;;;;7.30;6.60;;;7.80;99.90;;;-141.84;66.33;19616.72;5054997;28;20274;-54
2023/05/09 02:47:22;;;;;;;7.33;6.57;;;7.80;99.90;;;-141.84;66.87;19622.81;5054375;28;20682;-55
2023/05/09 02:49:50;;;;;;;7.40;6.60;;;7.70;99.90;;;-141.84;67.03;19628.91;5041068;28;20198;-56
2023/05/09 02:52:18;;;;;;;8.90;6.37;;;7.70;99.90;;;-141.84;66.56;19659.38;5046054;28;20194;-53
2023/05/09 02:54:47;;;;;;;7.50;6.63;;;7.70;99.90;;;-141.84;66.52;19622.81;5054955;28;20216;-53
2023/05/09 02:57:15;;;;;;;7.50;6.77;;;7.70;99.90;;;-141.84;66.53;19628.91;5054324;28;20319;-55
2023/05/09 02:59:43;;;;;;;7.77;6.77;;;7.70;99.90;;;-141.84;66.30;19618.75;5054571;28;20201;-56
2023/05/09 03:02:11;;;;;;;7.13;6.43;;;7.70;99.90;;;-141.84;65.56;19663.44;5054427;28;20208;-57
2023/05/09 03:04:41;;;;;;;7.87;7.17;;;7.70;99.90;;;-141.84;65.88;19641.09;5043611;28;20574;-55
2023/05/09 03:07:10;;;;;;;7.40;6.10;;;7.70;99.90;;;-141.84;65.34;19657.34;5052566;28;20208;-58
2023/05/09 03:09:38;;;;;;;6.63;5.93;;;7.70;99.90;;;-141.84;65.86;19612.63;5054724;28;20588;-55
2023/05/09 03:12:08;;;;;;;6.90;6.30;;;7.70;99.90;;;-141.84;66.09;19622.81;5054558;28;20578;-55
2023/05/09 03:14:36;;;;;;;7.57;6.00;;;7.70;99.90;;;-141.84;65.70;19602.47;5054524;28;20208;-57
2023/05/09 03:17:05;;;;;;;7.63;6.83;;;7.70;99.90;;;-141.84;66.02;19628.91;5054031;28;20232;-54
2023/05/09 03:19:33;;;;;;;7.53;6.60;;;7.60;99.90;;;-141.84;66.09;19602.47;5054237;28;20202;-53
2023/05/09 03:22:02;;;;;;;9.20;6.67;;;7.60;99.90;;;-141.84;65.33;19653.28;5046997;28;20209;-53
2023/05/09 03:24:30;;;;;;;7.07;6.37;;;7.70;99.90;;;-141.84;65.65;19557.78;5054218;28;20205;-54
2023/05/09 03:26:58;;;;;;;8.60;6.33;;;7.60;99.90;;;-141.84;65.06;19626.88;5054070;28;20568;-53
2023/05/09 03:29:27;;;;;;;6.90;6.20;;;7.70;99.90;;;-141.84;64.74;19614.66;5054192;28;20205;-58
2023/05/09 03:31:55;;;;;;;7.83;6.70;;;7.70;99.90;;;-141.84;65.41;19641.09;5053493;28;20204;-53
2023/05/09 03:34:23;;;;;;;7.47;6.27;;;7.70;99.90;;;-141.84;65.16;19622.81;5053639;28;20714;-57
2023/05/09 03:36:51;;;;;;;6.77;6.17;;;7.60;99.90;;;-141.84;65.39;19618.75;5053858;28;20212;-56
2023/05/09 03:39:20;;;;;;;8.20;6.70;;;7.60;99.90;;;-141.84;65.89;19616.72;5053694;28;20202;-55
2023/05/09 03:41:49;;;;;;;7.97;6.30;;;7.60;99.90;;;-141.84;65.65;19647.19;5053530;28;20208;-54
2023/05/09 03:44:17;;;;;;;7.07;6.33;;;7.60;99.90;;;-141.84;65.41;19612.63;5053748;28;20200;-55
2023/05/09 03:46:45;;;;;;;7.13;6.43;;;7.60;99.90;;;-141.84;65.75;19635.00;5053573;28;20204;-55
2023/05/09 03:49:13;;;;;;;6.60;6.00;;;7.60;99.90;;;-141.84;65.20;19622.81;5044212;28;20280;-55
2023/05/09 03:51:41;;;;;;;8.60;6.10;;;7.60;99.90;;;-141.84;65.60;19602.47;5040307;28;20224;-55
2023/05/09 03:54:09;;;;;;;7.57;6.50;;;7.60;99.90;;;-141.84;64.98;19630.94;5053752;28;20209;-54
2023/05/09 03:56:39;;;;;;;7.67;6.50;;;7.60;99.90;;;-141.84;65.37;19639.06;5053510;28;20205;-55
2023/05/09 03:59:07;;;;;;;9.47;6.60;;;7.60;99.90;;;-141.84;65.13;19618.75;5053504;28;20221;-57
2023/05/09 04:01:35;;;;;;;6.80;6.10;;;7.70;99.90;;;-141.84;64.84;19602.47;5053363;28;20205;-57
2023/05/09 04:04:07;;;;;;;9.83;6.63;;;7.70;99.90;;;-141.84;64.25;19643.13;5053154;28;20748;-54
2023/05/09 04:06:36;;;;;;;9.77;6.23;;;7.70;99.90;;;-141.84;64.20;19659.38;5053664;28;20346;-54
2023/05/09 04:09:04;;;;;;;7.23;6.37;;;7.80;99.90;;;-141.84;64.63;19624.84;5053548;28;20208;-58
2023/05/09 04:11:32;;;;;;;7.10;6.00;;;7.80;99.90;;;-141.84;64.76;19635.00;5052999;28;20672;-54
2023/05/09 04:14:05;;;;;;;9.20;6.00;;;7.80;99.90;;;-141.84;63.96;19655.31;5053419;28;20205;-57
2023/05/09 04:16:34;;;;;;;7.10;6.40;;;7.80;99.90;;;-141.84;64.38;19637.03;5052758;28;20683;-57
2023/05/09 04:19:02;;;;;;;7.00;5.27;;;7.80;99.90;;;-141.84;63.90;19653.28;5052689;28;20229;-54
2023/05/09 04:21:30;;;;;;;8.33;6.07;;;7.90;99.90;;;-141.84;64.30;19641.09;5050053;28;20204;-56
2023/05/09 04:23:59;;;;;;;9.10;6.40;;;7.90;99.90;;;-141.84;63.42;19671.56;5049453;28;20208;-56
2023/05/09 04:26:27;;;;;;;8.70;6.07;;;8.00;99.90;;;-141.84;63.65;19687.84;5053102;28;20204;-54
2023/05/09 04:28:55;;;;;;;6.57;5.97;;;8.00;99.90;;;-141.84;63.78;19655.31;5052976;28;20206;-55
2023/05/09 04:31:25;;;;;;;6.50;5.70;;;8.00;99.90;;;-141.84;62.88;19687.84;5052869;28;20197;-55
2023/05/09 04:33:54;;;;;;;6.60;5.97;;;8.10;99.90;;;-141.84;63.47;19687.84;5052766;28;20201;-55
2023/05/09 04:36:22;;;;;;;9.67;6.77;;;8.10;99.90;;;-141.84;62.56;19702.06;5052943;28;20224;-56
2023/05/09 04:38:50;;;;;;;8.80;5.73;;;8.30;99.90;;;-141.84;63.02;19683.78;5052688;28;20229;-54
2023/05/09 04:41:20;;;;;;;7.10;6.40;;;8.30;99.90;;;-141.84;62.67;19710.19;5052829;28;20538;-56
2023/05/09 04:43:48;;;;;;;7.70;5.73;;;8.40;99.90;;;-141.84;61.71;19736.59;5052800;28;20358;-54
2023/05/09 04:46:16;;;;;;;6.60;5.90;;;8.50;99.90;;;-141.84;61.46;19704.09;5052720;28;20205;-54
2023/05/09 04:48:46;;;;;;;6.30;5.70;;;8.60;99.90;;;-141.84;61.15;19752.88;5047170;28;20226;-51
2023/05/09 04:51:14;;;;;;;8.63;6.07;;;8.80;99.90;;;-141.84;60.70;19744.75;5052462;28;20280;-58
2023/05/09 04:53:42;;;;;;;9.37;5.80;;;8.90;99.90;;;-141.84;59.57;19826.03;5051840;28;20208;-55
2023/05/09 04:56:10;;;;;;;7.67;5.97;;;9.10;99.90;;;-141.84;56.20;20065.84;5052509;28;20205;-57
2023/05/09 04:58:38;;;;;;;7.00;4.97;;;10.20;99.90;;;-141.84;49.62;20368.72;5052373;28;20225;-53
2023/05/09 05:01:06;;;;;;;6.93;5.40;;;11.70;99.90;;;-141.84;44.45;20700.03;5052451;28;20205;-55
2023/05/09 05:03:35;;;;;;;6.07;5.00;;;13.20;99.90;;;-141.84;41.08;20858.59;5052243;28;20216;-56
2023/05/09 05:06:05;;;;;;;7.50;5.72;;;14.60;99.90;;;-141.84;39.48;21078.16;5053124;28;20201;-54
2023/05/09 05:08:33;;;;;;;8.68;5.60;;;15.60;99.90;;;-141.84;37.67;21200.16;5052286;28;20239;-55
2023/05/09 05:11:01;;;;;;;9.25;5.00;;;16.20;99.90;;;-141.84;37.03;21216.41;5052210;28;20205;-55
2023/05/09 05:13:30;;;;;;;8.55;5.57;;;16.50;99.90;;;-141.84;38.04;21157.47;5052127;28;20208;-56
2023/05/09 05:15:58;;;;;;;5.97;5.00;;;16.40;99.90;;;-141.84;38.92;20960.25;5051954;28;20207;-55
2023/05/09 05:18:26;;;;;;;7.75;5.00;;;16.10;99.90;;;-141.84;40.54;20765.09;5051840;28;20222;-56
2023/05/09 05:20:54;;;;;;;9.43;5.68;;;15.50;99.90;;;-141.84;42.94;20622.81;5051761;28;20577;-56
2023/05/09 05:23:24;;;;;;;6.47;5.85;;;14.70;99.90;;;-141.84;44.75;20480.50;5044874;28;20206;-57
2023/05/09 05:25:52;;;;;;;6.50;5.82;;;14.10;99.90;;;-141.84;46.07;20384.97;5051978;28;20201;-54
2023/05/09 05:28:20;;;;;;;5.80;4.97;;;13.60;99.90;;;-141.84;46.53;20378.88;5051776;28;20251;-57
2023/05/09 05:30:48;;;;;;;6.77;5.23;;;13.40;99.90;;;-141.84;47.38;20309.75;5051561;28;20206;-54
2023/05/09 05:33:16;;;;;;;5.93;5.30;;;13.20;99.90;;;-141.84;47.67;20277.25;5051622;28;20210;-56
2023/05/09 05:35:44;;;;;;;7.07;5.27;;;13.00;99.90;;;-141.84;47.79;20297.56;5052157;28;20208;-57
2023/05/09 05:38:12;;;;;;;6.57;5.40;;;13.00;99.90;;;-141.84;47.86;20289.44;5051470;28;20205;-56
2023/05/09 05:40:42;;;;;;;6.97;5.90;;;13.00;99.90;;;-141.84;48.26;20281.31;5052377;28;20224;-57
2023/05/09 05:43:10;;;;;;;5.43;4.90;;;12.90;99.90;;;-141.84;47.52;20279.28;5051570;28;20605;-56
2023/05/09 05:45:38;;;;;;;7.80;5.03;;;12.90;99.90;;;-141.84;47.56;20256.91;5051373;28;20692;-57
2023/05/09 05:48:06;;;;;;;5.10;4.60;;;12.80;99.90;;;-141.84;48.17;20246.75;5050692;28;20257;-54
2023/05/09 05:50:36;;;;;;;5.73;5.23;;;12.80;99.90;;;-141.84;48.13;20250.81;5031578;28;20567;-54
2023/05/09 05:53:05;;;;;;;5.93;5.33;;;12.70;99.90;;;-141.84;48.03;20234.56;5049165;28;20217;-57
2023/05/09 05:55:33;;;;;;;5.77;4.63;;;12.80;99.90;;;-141.84;47.24;20267.09;5049029;28;20205;-56
2023/05/09 05:58:03;;;;;;;6.20;5.57;;;12.70;99.90;;;-141.84;48.37;20265.03;5049967;28;20534;-56
2023/05/09 06:00:31;;;;;;;8.97;5.20;;;12.80;99.90;;;-141.84;47.51;20263.00;5051331;28;20587;-55
2023/05/09 06:02:59;;;;;;;5.27;4.57;;;12.90;99.90;;;-141.84;48.47;20279.28;5051285;28;20201;-56
2023/05/09 06:05:27;;;;;;;6.03;4.63;;;12.90;99.90;;;-141.84;47.65;20307.72;5053219;28;20201;-56
2023/05/09 06:07:55;;;;;;;6.97;5.47;;;13.00;99.90;;;-141.84;47.53;20279.28;5055747;28;20204;-53
2023/05/09 06:10:23;;;;;;;6.27;4.77;;;13.10;99.90;;;-141.84;47.89;20342.28;5055458;28;20197;-53
2023/05/09 06:12:52;;;;;;;10.37;5.80;;;13.10;99.90;;;-141.84;47.91;20315.88;5055477;28;20205;-55
2023/05/09 06:15:21;;;;;;;7.20;5.33;;;13.20;99.90;;;-141.84;47.44;20303.66;5055177;28;20237;-54
2023/05/09 06:17:50;;;;;;;5.43;4.90;;;13.20;99.90;;;-141.84;47.41;20362.63;5055344;28;20205;-57
2023/05/09 06:20:18;;;;;;;8.33;5.03;;;13.30;99.90;;;-141.84;47.13;20317.91;5055080;28;20221;-55
2023/05/09 06:22:46;;;;;;;8.60;5.23;;;13.30;99.90;;;-141.84;47.24;20332.13;5048422;28;20231;-56
2023/05/09 06:25:14;;;;;;;6.63;5.30;;;13.30;99.90;;;-141.84;47.32;20334.16;5055125;28;20205;-56
2023/05/09 06:27:44;;;;;;;8.07;4.77;;;13.40;99.90;;;-141.84;46.66;20346.34;5055386;28;20236;-55
2023/05/09 06:30:13;;;;;;;6.50;5.10;;;13.40;99.90;;;-141.84;47.53;20358.56;5055115;28;20204;-57
2023/05/09 06:32:56;;;;;;;9.33;5.00;;;13.40;99.90;;;-141.84;46.67;20391.06;5054891;28;20197;-56
2023/05/09 06:35:25;;;;;;;8.07;4.77;;;13.50;99.90;;;-141.84;46.67;20370.75;5054672;28;20190;-55
2023/05/09 06:37:53;;;;;;;6.27;5.13;;;13.50;99.90;;;-141.84;46.94;20411.41;5054897;28;20197;-53
2023/05/09 06:40:21;;;;;;;6.30;4.90;;;13.60;99.90;;;-141.84;46.72;20350.41;5053607;28;20217;-56
2023/05/09 06:42:49;;;;;;;7.23;4.80;;;13.50;99.90;;;-141.84;46.97;20370.75;5054398;28;20216;-54
2023/05/09 06:45:18;;;;;;;5.80;5.00;;;13.60;99.90;;;-141.84;46.36;20399.19;5054520;28;20208;-55
2023/05/09 06:47:46;;;;;;;6.93;4.90;;;13.60;99.90;;;-141.84;46.91;20391.06;5054354;28;20232;-53
2023/05/09 06:50:16;;;;;;;6.50;5.03;;;13.60;99.90;;;-141.84;46.64;20439.84;5037190;28;20276;-54
2023/05/09 06:52:44;;;;;;;4.80;4.30;;;13.70;99.90;;;-141.84;47.01;20423.59;5049782;28;20213;-56
2023/05/09 06:55:12;;;;;;;7.20;4.75;;;13.70;99.90;;;-141.84;46.55;20399.19;5054080;28;20206;-56
2023/05/09 06:57:41;;;;;;;6.53;4.93;;;13.80;99.90;;;-141.84;46.16;20407.34;5054601;28;20201;-55
2023/05/09 07:00:11;;;;;;;6.70;4.90;;;13.80;99.90;;;-141.84;46.40;20429.69;5054422;28;20595;-55
2023/05/09 07:02:40;;;;;;;7.80;4.77;;;13.80;99.90;;;-141.84;46.84;20427.66;5054139;28;20673;-56
2023/05/09 07:05:10;;;;;;;5.20;4.37;;;13.90;99.90;;;-141.84;46.07;20441.88;5054522;28;20300;-56
2023/05/09 07:07:39;;;;;;;7.03;4.63;;;13.90;99.90;;;-141.84;47.05;20437.81;5054258;28;20313;-54
2023/05/09 07:10:09;;;;;;;5.73;5.13;;;13.90;99.90;;;-141.84;45.96;20415.47;5054382;28;20205;-55
2023/05/09 07:12:40;;;;;;;6.95;4.45;;;13.90;99.90;;;-141.84;46.33;20425.63;5053125;28;20217;-57
2023/05/09 07:15:10;;;;;;;10.68;5.13;;;13.80;99.90;;;-141.84;46.82;20382.94;5053630;28;20197;-54
2023/05/09 07:17:38;;;;;;;4.80;4.30;;;13.80;99.90;;;-141.84;46.62;20378.88;5051408;28;20214;-54
2023/05/09 07:20:08;;;;;;;7.37;4.90;;;13.70;99.90;;;-141.84;46.19;20425.63;5051825;28;20221;-55
2023/05/09 07:22:36;;;;;;;4.85;4.30;;;13.80;99.90;;;-141.84;46.33;20431.72;5046819;28;20197;-55
2023/05/09 07:25:09;;;;;;;8.05;4.43;;;13.80;99.90;;;-141.84;46.77;20427.66;5053677;28;20271;-53
2023/05/09 07:27:37;;;;;;;7.67;4.13;;;13.80;99.90;;;-141.84;46.72;20445.94;5053941;28;20189;-57
2023/05/09 07:30:08;;;;;;;6.27;4.43;;;13.80;99.90;;;-141.84;46.50;20443.91;5040859;28;20207;-53
2023/05/09 07:32:36;;;;;;;5.72;4.70;;;13.80;99.90;;;-141.84;46.44;20447.97;5048988;28;20197;-58
2023/05/09 07:35:05;;;;;;;5.45;4.60;;;13.90;99.90;;;-141.84;46.97;20456.13;5053606;28;20259;-52
2023/05/09 07:37:33;;;;;;;5.47;4.33;;;14.00;99.90;;;-141.84;46.58;20452.06;5053634;28;20200;-53
2023/05/09 07:40:02;;;;;;;9.70;4.60;;;14.00;99.90;;;-141.84;46.09;20480.50;5053596;28;20225;-56
2023/05/09 07:42:32;;;;;;;4.90;4.40;;;14.00;99.90;;;-141.84;46.39;20468.31;5053608;28;20205;-55
2023/05/09 07:45:00;;;;;;;5.13;4.57;;;14.00;99.90;;;-141.84;46.21;20460.19;5053591;28;20212;-54
2023/05/09 07:47:28;;;;;;;7.50;4.93;;;14.00;99.90;;;-141.84;46.11;20458.16;5053119;28;20615;-52
2023/05/09 07:49:56;;;;;;;4.93;4.43;;;14.10;99.90;;;-141.84;46.12;20508.97;5038589;28;20189;-54
2023/05/09 07:52:25;;;;;;;5.50;4.68;;;14.10;99.90;;;-141.84;46.40;20443.91;5046074;28;20201;-55
2023/05/09 07:54:53;;;;;;;6.22;4.38;;;13.90;99.90;;;-141.84;46.71;20450.03;5053220;28;20207;-53
2023/05/09 07:57:22;;;;;;;4.50;4.10;;;14.00;99.90;;;-141.84;46.50;20472.38;5053440;28;20208;-55
2023/05/09 07:59:51;;;;;;;6.20;4.50;;;14.10;99.90;;;-141.84;46.42;20488.63;5053166;28;20241;-50
2023/05/09 08:02:19;;;;;;;8.55;4.32;;;14.10;99.90;;;-141.84;46.21;20488.63;5053139;28;20209;-53
2023/05/09 08:04:48;;;;;;;4.30;3.90;;;14.20;99.90;;;-141.84;45.95;20498.81;5053260;28;20209;-55
2023/05/09 08:07:16;;;;;;;5.85;4.40;;;14.30;99.90;;;-141.84;45.83;20506.94;5053416;28;20201;-55
2023/05/09 08:09:44;;;;;;;5.53;4.80;;;14.40;99.90;;;-141.84;45.81;20533.34;5053463;28;20310;-53
2023/05/09 08:12:12;;;;;;;5.03;4.30;;;14.40;99.90;;;-141.84;46.37;20539.47;5053259;28;20209;-55
2023/05/09 08:14:40;;;;;;;5.70;4.35;;;14.40;99.90;;;-141.84;46.04;20511.00;5053316;28;20307;-51
2023/05/09 08:17:10;;;;;;;4.45;4.05;;;14.40;99.90;;;-141.84;45.59;20527.25;5053093;28;20267;-53
2023/05/09 08:19:38;;;;;;;4.75;4.20;;;14.50;99.90;;;-141.84;44.87;20565.88;5052975;28;20205;-56
2023/05/09 08:22:06;;;;;;;4.72;4.20;;;14.60;99.90;;;-141.84;44.92;20569.94;5045828;28;20679;-57
2023/05/09 08:24:34;;;;;;;6.43;4.43;;;14.60;99.90;;;-141.84;44.80;20533.34;5053105;28;20201;-55
2023/05/09 08:27:03;;;;;;;4.95;4.25;;;14.60;99.90;;;-141.84;45.11;20592.31;5033872;28;20205;-54
2023/05/09 08:29:31;;;;;;;5.20;4.70;;;14.60;99.90;;;-141.84;44.37;20565.88;5031812;28;20214;-53
2023/05/09 08:31:59;;;;;;;6.80;4.38;;;14.70;99.90;;;-141.84;44.86;20547.59;5043278;28;20225;-54
2023/05/09 08:34:30;;;;;;;5.93;3.75;;;14.70;99.90;;;-141.84;44.59;20594.34;5052440;28;20206;-57
2023/05/09 08:36:58;;;;;;;5.18;3.97;;;14.70;99.90;;;-141.84;44.50;20594.34;5052416;28;20189;-53
2023/05/09 08:39:26;;;;;;;7.85;3.80;;;14.80;99.90;;;-141.84;44.27;20598.41;5052704;28;20216;-55
2023/05/09 08:41:59;;;;;;;4.47;3.72;;;14.80;99.90;;;-141.84;43.65;20651.25;5052390;28;20599;-53
2023/05/09 08:44:30;;;;;;;5.03;4.07;;;15.00;99.90;;;-141.84;44.34;20630.94;5052519;28;20642;-55
2023/05/09 08:47:02;;;;;;;4.45;3.95;;;15.00;99.90;;;-141.84;44.51;20628.91;5052269;28;20641;-55
2023/05/09 08:49:33;;;;;;;4.82;4.32;;;15.00;99.90;;;-141.84;44.82;20620.78;5040831;28;20308;-54
2023/05/09 08:52:02;;;;;;;6.80;3.90;;;15.10;99.90;;;-141.84;44.81;20643.13;5041730;28;20197;-52
2023/05/09 08:54:31;;;;;;;7.22;4.38;;;15.20;99.90;;;-141.84;44.64;20675.66;5052495;28;20217;-54
2023/05/09 08:57:01;;;;;;;5.65;4.10;;;15.20;99.90;;;-141.84;44.97;20665.50;5052284;28;20198;-56
2023/05/09 08:59:32;;;;;;;5.03;4.25;;;15.30;99.90;;;-141.84;44.58;20679.72;5052133;28;20642;-51
2023/05/09 09:02:00;;;;;;;5.38;4.32;;;15.40;99.90;;;-141.84;43.87;20720.38;5052144;28;20211;-53
2023/05/09 09:04:28;;;;;;;5.20;4.28;;;15.50;99.90;;;-141.84;44.13;20698.00;5052246;28;20210;-55
2023/05/09 09:06:59;;;;;;;4.65;4.25;;;15.50;99.90;;;-141.84;43.62;20720.38;5052345;28;20198;-53
2023/05/09 09:09:28;;;;;;;5.40;4.38;;;15.60;99.90;;;-141.84;43.70;20720.38;5052189;28;20190;-55
2023/05/09 09:11:57;;;;;;;6.63;4.22;;;15.60;99.90;;;-141.84;43.58;20765.09;5052023;28;20202;-52
2023/05/09 09:14:31;;;;;;;5.22;4.45;;;15.70;99.90;;;-141.84;43.35;20702.09;5051892;28;20696;-53
2023/05/09 09:17:00;;;;;;;4.65;4.10;;;15.60;99.90;;;-141.84;43.34;20740.69;5051597;28;20189;-51
2023/05/09 09:19:33;;;;;;;4.78;3.72;;;15.70;99.90;;;-141.84;43.07;20761.03;5051662;28;20688;-54
2023/05/09 09:22:05;;;;;;;5.00;4.53;;;15.80;99.90;;;-141.84;43.06;20769.16;5044787;28;20348;-58
2023/05/09 09:24:35;;;;;;;5.55;4.13;;;15.90;99.90;;;-141.84;42.88;20769.16;5052143;28;20247;-56
2023/05/09 09:27:06;;;;;;;4.30;3.90;;;15.90;99.90;;;-141.84;42.92;20781.38;5052033;28;20193;-53
2023/05/09 09:29:35;;;;;;;4.43;4.00;;;16.00;99.90;;;-141.84;43.19;20809.81;5052027;28;20312;-54
2023/05/09 09:32:05;;;;;;;4.82;3.80;;;16.00;99.90;;;-141.84;43.17;20785.44;5045695;28;20211;-55
2023/05/09 09:34:33;;;;;;;4.90;3.67;;;16.00;99.90;;;-141.84;42.40;20828.13;5051857;28;20201;-53
2023/05/09 09:37:06;;;;;;;4.90;3.70;;;16.20;99.90;;;-141.84;42.22;20862.69;5051411;28;20216;-55
2023/05/09 09:39:34;;;;;;;4.53;4.07;;;16.30;99.90;;;-141.84;41.78;20870.81;5051579;28;20194;-53
2023/05/09 09:42:11;;;;;;;4.03;3.60;;;16.50;99.90;;;-141.84;41.23;20897.25;5051550;28;20588;-57
2023/05/09 09:44:39;;;;;;;4.57;3.28;;;16.60;99.90;;;-141.84;41.11;20921.63;5051966;28;20197;-54
2023/05/09 09:47:11;;;;;;;3.97;3.58;;;16.70;99.90;;;-141.84;41.12;20925.69;5051193;28;20696;-52
2023/05/09 09:49:47;;;;;;;8.10;3.88;;;16.70;99.90;;;-141.84;40.82;20941.97;5038798;28;20226;-54
2023/05/09 09:52:25;;;;;;;3.67;3.33;;;16.80;99.90;;;-141.84;40.53;20952.13;5043082;28;20224;-54
2023/05/09 09:54:56;;;;;;;4.53;3.80;;;16.90;99.90;;;-141.84;40.33;20972.47;5051681;28;20204;-56
2023/05/09 09:57:35;;;;;;;5.35;3.85;;;17.10;99.90;;;-141.84;40.64;20968.38;5051521;28;20186;-57
2023/05/09 10:00:04;;;;;;;6.22;3.80;;;17.10;99.90;;;-141.84;40.90;21002.94;5051487;28;20197;-56
2023/05/09 10:02:33;;;;;;;4.72;3.90;;;17.20;99.90;;;-141.84;40.11;21019.22;5051299;28;20221;-57
2023/05/09 10:05:08;;;;;;;4.38;3.80;;;17.20;99.90;;;-141.84;40.31;20986.69;5051194;28;20207;-56
2023/05/09 10:07:38;;;;;;;5.13;3.30;;;17.20;99.90;;;-141.84;40.74;21041.56;5051320;28;20228;-55
2023/05/09 10:10:07;;;;;;;5.07;3.90;;;17.20;99.90;;;-141.84;40.74;21021.25;5051094;28;20687;-55
2023/05/09 10:12:37;;;;;;;4.22;3.83;;;17.40;99.90;;;-141.84;40.55;21049.72;5051307;28;20216;-54
2023/05/09 10:15:10;;;;;;;4.25;3.85;;;17.50;99.90;;;-141.84;40.43;21055.81;5051321;28;20205;-55
2023/05/09 10:17:38;;;;;;;3.92;3.50;;;17.50;99.90;;;-141.84;40.26;21092.41;5050790;28;20208;-57
2023/05/09 10:20:09;;;;;;;6.05;4.00;;;17.60;99.90;;;-141.84;39.66;21094.44;5050923;28;20201;-55